sensor_id;sensor_type;location;lat;lon;timestamp;pressure;altitude;pressure_sealevel;temperature;humidity
84122;BME280;74217;51.106;17.084;2024-02-26T00:00:46;99270.66;;;2.30;80.32
84122;BME280;74217;51.106;17.084;2024-02-26T00:03:51;99267.50;;;2.19;80.38
84122;BME280;74217;51.106;17.084;2024-02-26T00:06:36;99258.88;;;2.17;80.45
84122;BME280;74217;51.106;17.084;2024-02-26T00:09:21;99258.88;;;2.17;81.06
84122;BME280;74217;51.106;17.084;2024-02-26T00:12:06;99266.03;;;2.09;80.69
84122;BME280;74217;51.106;17.084;2024-02-26T00:14:50;99266.03;;;2.09;80.94
84122;BME280;74217;51.106;17.084;2024-02-26T00:17:37;99254.94;;;2.02;80.46
84122;BME280;74217;51.106;17.084;2024-02-26T00:20:21;99257.88;;;1.90;80.74
84122;BME280;74217;51.106;17.084;2024-02-26T00:23:06;99257.88;;;1.90;81.12
84122;BME280;74217;51.106;17.084;2024-02-26T00:25:51;99264.78;;;1.90;81.21
84122;BME280;74217;51.106;17.084;2024-02-26T00:28:36;99252.72;;;1.89;81.32
84122;BME280;74217;51.106;17.084;2024-02-26T00:31:20;99258.06;;;1.83;81.40
84122;BME280;74217;51.106;17.084;2024-02-26T00:34:05;99248.63;;;1.79;81.96
84122;BME280;74217;51.106;17.084;2024-02-26T00:36:49;99245.13;;;1.81;82.05
84122;BME280;74217;51.106;17.084;2024-02-26T00:39:34;99246.69;;;1.87;81.63
84122;BME280;74217;51.106;17.084;2024-02-26T00:42:19;99251.78;;;1.91;81.70
84122;BME280;74217;51.106;17.084;2024-02-26T00:45:03;99240.88;;;1.79;82.00
84122;BME280;74217;51.106;17.084;2024-02-26T00:47:48;99256.41;;;1.79;82.83
84122;BME280;74217;51.106;17.084;2024-02-26T00:50:34;99245.31;;;1.74;83.16
84122;BME280;74217;51.106;17.084;2024-02-26T00:53:18;99249.91;;;1.63;84.00
84122;BME280;74217;51.106;17.084;2024-02-26T00:56:03;99240.03;;;1.78;83.50
84122;BME280;74217;51.106;17.084;2024-02-26T00:58:48;99246.00;;;1.82;83.10
84122;BME280;74217;51.106;17.084;2024-02-26T01:01:33;99253.69;;;1.83;82.68
84122;BME280;74217;51.106;17.084;2024-02-26T01:04:17;99245.91;;;1.85;82.56
84122;BME280;74217;51.106;17.084;2024-02-26T01:07:02;99242.41;;;1.86;82.70
84122;BME280;74217;51.106;17.084;2024-02-26T01:09:47;99236.56;;;1.78;82.17
84122;BME280;74217;51.106;17.084;2024-02-26T01:12:33;99238.16;;;1.83;82.58
84122;BME280;74217;51.106;17.084;2024-02-26T01:15:18;99244.09;;;1.87;82.00
84122;BME280;74217;51.106;17.084;2024-02-26T01:18:06;99235.47;;;1.88;82.38
84122;BME280;74217;51.106;17.084;2024-02-26T01:20:51;99235.47;;;1.88;82.39
84122;BME280;74217;51.106;17.084;2024-02-26T01:23:36;99226.94;;;1.83;82.46
84122;BME280;74217;51.106;17.084;2024-02-26T01:26:21;99226.22;;;1.76;82.35
84122;BME280;74217;51.106;17.084;2024-02-26T01:29:06;99231.19;;;1.85;82.70
84122;BME280;74217;51.106;17.084;2024-02-26T01:31:51;99226.69;;;1.92;81.95
84122;BME280;74217;51.106;17.084;2024-02-26T01:34:35;99222.38;;;1.92;81.99
84122;BME280;74217;51.106;17.084;2024-02-26T01:37:21;99219.31;;;1.77;82.10
84122;BME280;74217;51.106;17.084;2024-02-26T01:40:06;99227.59;;;1.91;82.45
84122;BME280;74217;51.106;17.084;2024-02-26T01:42:52;99225.75;;;1.94;82.14
84122;BME280;74217;51.106;17.084;2024-02-26T01:45:37;99219.94;;;1.86;81.99
84122;BME280;74217;51.106;17.084;2024-02-26T01:48:22;99223.34;;;1.88;81.45
84122;BME280;74217;51.106;17.084;2024-02-26T01:51:07;99219.75;;;1.94;81.44
84122;BME280;74217;51.106;17.084;2024-02-26T01:53:53;99221.66;;;1.86;81.79
84122;BME280;74217;51.106;17.084;2024-02-26T01:56:40;99212.94;;;1.90;81.61
84122;BME280;74217;51.106;17.084;2024-02-26T01:59:24;99214.78;;;1.85;81.51
84122;BME280;74217;51.106;17.084;2024-02-26T02:02:10;99216.41;;;1.89;81.97
84122;BME280;74217;51.106;17.084;2024-02-26T02:04:56;99218.09;;;1.91;81.30
84122;BME280;74217;51.106;17.084;2024-02-26T02:07:41;99220.66;;;1.91;81.02
84122;BME280;74217;51.106;17.084;2024-02-26T02:10:26;99221.50;;;1.92;80.78
84122;BME280;74217;51.106;17.084;2024-02-26T02:13:11;99216.28;;;1.93;80.94
84122;BME280;74217;51.106;17.084;2024-02-26T02:15:55;99211.22;;;1.89;80.94
84122;BME280;74217;51.106;17.084;2024-02-26T02:18:40;99206.19;;;1.83;80.95
84122;BME280;74217;51.106;17.084;2024-02-26T02:21:24;99211.53;;;1.77;80.45
84122;BME280;74217;51.106;17.084;2024-02-26T02:24:10;99214.25;;;1.72;80.91
84122;BME280;74217;51.106;17.084;2024-02-26T02:26:55;99197.19;;;1.64;81.13
84122;BME280;74217;51.106;17.084;2024-02-26T02:29:40;99210.16;;;1.64;80.60
84122;BME280;74217;51.106;17.084;2024-02-26T02:32:25;99211.06;;;1.61;81.03
84122;BME280;74217;51.106;17.084;2024-02-26T02:35:11;99210.16;;;1.64;80.85
84122;BME280;74217;51.106;17.084;2024-02-26T02:37:57;99209.50;;;1.56;80.92
84122;BME280;74217;51.106;17.084;2024-02-26T02:40:42;99206.94;;;1.54;81.26
84122;BME280;74217;51.106;17.084;2024-02-26T02:43:26;99205.03;;;1.61;80.83
84122;BME280;74217;51.106;17.084;2024-02-26T02:46:11;99211.75;;;1.68;80.36
84122;BME280;74217;51.106;17.084;2024-02-26T02:48:59;99203.13;;;1.69;80.66
84122;BME280;74217;51.106;17.084;2024-02-26T02:51:43;99218.66;;;1.69;80.51
84122;BME280;74217;51.106;17.084;2024-02-26T02:54:28;99212.66;;;1.67;79.89
84122;BME280;74217;51.106;17.084;2024-02-26T02:57:13;99212.66;;;1.67;79.74
84122;BME280;74217;51.106;17.084;2024-02-26T02:59:58;99208.44;;;1.63;79.16
84122;BME280;74217;51.106;17.084;2024-02-26T03:02:42;99203.41;;;1.57;79.36
84122;BME280;74217;51.106;17.084;2024-02-26T03:05:28;99215.53;;;1.55;79.61
84122;BME280;74217;51.106;17.084;2024-02-26T03:08:13;99213.94;;;1.51;80.07
84122;BME280;74217;51.106;17.084;2024-02-26T03:11:01;99220.09;;;1.45;80.13
84122;BME280;74217;51.106;17.084;2024-02-26T03:13:45;99212.38;;;1.44;80.36
84122;BME280;74217;51.106;17.084;2024-02-26T03:16:30;99212.59;;;1.35;80.23
84122;BME280;74217;51.106;17.084;2024-02-26T03:19:15;99211.69;;;1.36;80.32
84122;BME280;74217;51.106;17.084;2024-02-26T03:22:03;99210.22;;;1.26;80.58
84122;BME280;74217;51.106;17.084;2024-02-26T03:24:47;99211.13;;;1.25;80.38
84122;BME280;74217;51.106;17.084;2024-02-26T03:27:32;99218.03;;;1.24;80.89
84122;BME280;74217;51.106;17.084;2024-02-26T03:30:17;99195.84;;;1.13;81.09
84122;BME280;74217;51.106;17.084;2024-02-26T03:33:01;99212.81;;;1.26;80.83
84122;BME280;74217;51.106;17.084;2024-02-26T03:35:46;99212.81;;;1.26;80.42
84122;BME280;74217;51.106;17.084;2024-02-26T03:38:31;99204.19;;;1.24;81.08
84122;BME280;74217;51.106;17.084;2024-02-26T03:41:16;99205.25;;;1.17;80.70
84122;BME280;74217;51.106;17.084;2024-02-26T03:44:01;99205.22;;;1.18;80.94
84122;BME280;74217;51.106;17.084;2024-02-26T03:46:45;99209.59;;;1.15;81.12
84122;BME280;74217;51.106;17.084;2024-02-26T03:49:31;99198.25;;;1.20;81.58
84122;BME280;74217;51.106;17.084;2024-02-26T03:52:15;99194.03;;;1.16;81.46
84122;BME280;74217;51.106;17.084;2024-02-26T03:55:00;99205.16;;;1.21;81.33
84122;BME280;74217;51.106;17.084;2024-02-26T03:57:45;99201.84;;;1.15;81.28
84122;BME280;74217;51.106;17.084;2024-02-26T04:00:29;99190.72;;;1.10;81.78
84122;BME280;74217;51.106;17.084;2024-02-26T04:03:14;99195.63;;;1.22;81.17
84122;BME280;74217;51.106;17.084;2024-02-26T04:05:59;99201.66;;;1.22;81.35
84122;BME280;74217;51.106;17.084;2024-02-26T04:08:44;99205.09;;;1.23;81.30
84122;BME280;74217;51.106;17.084;2024-02-26T04:11:28;99203.53;;;1.16;81.72
84122;BME280;74217;51.106;17.084;2024-02-26T04:14:13;99199.00;;;1.25;81.44
84122;BME280;74217;51.106;17.084;2024-02-26T04:16:58;99204.16;;;1.27;80.93
84122;BME280;74217;51.106;17.084;2024-02-26T04:19:42;99198.97;;;1.27;81.01
84122;BME280;74217;51.106;17.084;2024-02-26T04:22:26;99202.38;;;1.27;80.08
84122;BME280;74217;51.106;17.084;2024-02-26T04:25:11;99199.28;;;1.13;80.66
84122;BME280;74217;51.106;17.084;2024-02-26T04:27:56;99205.31;;;1.14;81.02
84122;BME280;74217;51.106;17.084;2024-02-26T04:30:41;99202.88;;;1.08;80.74
84122;BME280;74217;51.106;17.084;2024-02-26T04:33:25;99201.88;;;1.13;80.72
84122;BME280;74217;51.106;17.084;2024-02-26T04:36:14;99210.47;;;1.15;80.46
84122;BME280;74217;51.106;17.084;2024-02-26T04:38:59;99214.13;;;1.07;80.82
84122;BME280;74217;51.106;17.084;2024-02-26T04:41:44;99220.22;;;1.04;80.90
84122;BME280;74217;51.106;17.084;2024-02-26T04:44:28;99222.88;;;1.01;80.95
84122;BME280;74217;51.106;17.084;2024-02-26T04:47:13;99216.88;;;0.99;80.81
84122;BME280;74217;51.106;17.084;2024-02-26T04:49:57;99219.34;;;1.04;80.87
84122;BME280;74217;51.106;17.084;2024-02-26T04:52:42;99221.91;;;1.05;80.93
84122;BME280;74217;51.106;17.084;2024-02-26T04:55:26;99213.50;;;0.96;80.85
84122;BME280;74217;51.106;17.084;2024-02-26T04:58:11;99230.63;;;1.01;81.16
84122;BME280;74217;51.106;17.084;2024-02-26T05:00:56;99220.34;;;1.00;81.20
84122;BME280;74217;51.106;17.084;2024-02-26T05:03:41;99223.63;;;1.05;80.80
84122;BME280;74217;51.106;17.084;2024-02-26T05:06:26;99223.78;;;0.99;81.20
84122;BME280;74217;51.106;17.084;2024-02-26T05:09:11;99220.34;;;1.00;81.02
84122;BME280;74217;51.106;17.084;2024-02-26T05:11:56;99223.63;;;1.05;80.79
84122;BME280;74217;51.106;17.084;2024-02-26T05:14:41;99203.34;;;0.87;80.58
84122;BME280;74217;51.106;17.084;2024-02-26T05:17:25;99214.03;;;0.72;81.05
84122;BME280;74217;51.106;17.084;2024-02-26T05:20:10;99219.03;;;0.81;81.31
84122;BME280;74217;51.106;17.084;2024-02-26T05:22:55;99224.22;;;0.81;81.24
84122;BME280;74217;51.106;17.084;2024-02-26T05:25:39;99222.28;;;0.89;80.86
84122;BME280;74217;51.106;17.084;2024-02-26T05:28:25;99224.13;;;0.84;81.45
84122;BME280;74217;51.106;17.084;2024-02-26T05:31:12;99218.22;;;0.77;81.37
84122;BME280;74217;51.106;17.084;2024-02-26T05:33:57;99217.34;;;0.78;81.23
84122;BME280;74217;51.106;17.084;2024-02-26T05:36:41;99223.38;;;0.79;81.55
84122;BME280;74217;51.106;17.084;2024-02-26T05:39:26;99225.91;;;0.82;81.33
84122;BME280;74217;51.106;17.084;2024-02-26T05:42:11;99226.69;;;0.85;81.38
84122;BME280;74217;51.106;17.084;2024-02-26T05:44:56;99232.69;;;0.87;81.04
84122;BME280;74217;51.106;17.084;2024-02-26T05:47:41;99228.38;;;0.86;81.28
84122;BME280;74217;51.106;17.084;2024-02-26T05:50:29;99237.00;;;0.87;81.39
84122;BME280;74217;51.106;17.084;2024-02-26T05:53:14;99230.84;;;0.92;81.39
84122;BME280;74217;51.106;17.084;2024-02-26T05:55:59;99231.75;;;0.91;80.42
84122;BME280;74217;51.106;17.084;2024-02-26T05:58:43;99237.69;;;0.95;80.57
84122;BME280;74217;51.106;17.084;2024-02-26T06:01:28;99248.09;;;0.92;80.99
84122;BME280;74217;51.106;17.084;2024-02-26T06:04:13;99250.78;;;0.89;81.12
84122;BME280;74217;51.106;17.084;2024-02-26T06:06:58;99252.38;;;0.94;80.77
84122;BME280;74217;51.106;17.084;2024-02-26T06:09:43;99253.09;;;1.01;81.01
84122;BME280;74217;51.106;17.084;2024-02-26T06:12:28;99243.78;;;0.92;81.21
84122;BME280;74217;51.106;17.084;2024-02-26T06:15:13;99246.28;;;0.97;81.69
84122;BME280;74217;51.106;17.084;2024-02-26T06:17:58;99254.91;;;0.97;81.31
84122;BME280;74217;51.106;17.084;2024-02-26T06:20:43;99250.38;;;1.07;81.87
84122;BME280;74217;51.106;17.084;2024-02-26T06:23:28;99242.53;;;1.10;81.69
84122;BME280;74217;51.106;17.084;2024-02-26T06:26:13;99252.78;;;1.14;81.91
84122;BME280;74217;51.106;17.084;2024-02-26T06:28:57;99254.56;;;1.12;82.50
84122;BME280;74217;51.106;17.084;2024-02-26T06:31:42;99240.69;;;1.15;82.45
84122;BME280;74217;51.106;17.084;2024-02-26T06:34:27;99245.59;;;1.27;81.95
84122;BME280;74217;51.106;17.084;2024-02-26T06:37:11;99245.59;;;1.27;82.62
84122;BME280;74217;51.106;17.084;2024-02-26T06:39:55;99241.97;;;1.34;83.02
84122;BME280;74217;51.106;17.084;2024-02-26T06:42:40;99260.91;;;1.36;82.46
84122;BME280;74217;51.106;17.084;2024-02-26T06:45:24;99253.09;;;1.39;82.95
84122;BME280;74217;51.106;17.084;2024-02-26T06:48:09;99247.78;;;1.43;83.13
84122;BME280;74217;51.106;17.084;2024-02-26T06:50:54;99251.19;;;1.45;83.44
84122;BME280;74217;51.106;17.084;2024-02-26T06:53:39;99250.97;;;1.56;83.15
84122;BME280;74217;51.106;17.084;2024-02-26T06:56:24;99253.22;;;1.68;83.40
84122;BME280;74217;51.106;17.084;2024-02-26T06:59:09;99246.97;;;1.76;83.56
84122;BME280;74217;51.106;17.084;2024-02-26T07:01:53;99250.16;;;1.87;83.14
84122;BME280;74217;51.106;17.084;2024-02-26T07:04:39;99258.41;;;2.03;83.32
84122;BME280;74217;51.106;17.084;2024-02-26T07:07:25;99253.69;;;2.17;84.08
84122;BME280;74217;51.106;17.084;2024-02-26T07:10:10;99257.78;;;2.25;84.11
84122;BME280;74217;51.106;17.084;2024-02-26T07:12:56;99253.16;;;2.38;84.89
84122;BME280;74217;51.106;17.084;2024-02-26T07:15:41;99258.06;;;2.47;84.75
84122;BME280;74217;51.106;17.084;2024-02-26T07:18:26;99261.41;;;2.52;84.63
84122;BME280;74217;51.106;17.084;2024-02-26T07:21:12;99258.50;;;2.62;85.19
84122;BME280;74217;51.106;17.084;2024-02-26T07:23:56;99262.34;;;2.80;85.48
84122;BME280;74217;51.106;17.084;2024-02-26T07:26:41;99268.72;;;2.99;85.18
84122;BME280;74217;51.106;17.084;2024-02-26T07:29:26;99258.69;;;3.16;86.47
84122;BME280;74217;51.106;17.084;2024-02-26T07:32:11;99249.47;;;3.33;85.13
84122;BME280;74217;51.106;17.084;2024-02-26T07:34:56;99251.56;;;3.50;85.10
84122;BME280;74217;51.106;17.084;2024-02-26T07:37:41;99249.91;;;3.73;85.38
84122;BME280;74217;51.106;17.084;2024-02-26T07:40:25;99253.97;;;3.81;85.61
84122;BME280;74217;51.106;17.084;2024-02-26T07:43:11;99260.47;;;3.94;87.10
84122;BME280;74217;51.106;17.084;2024-02-26T07:45:56;99258.16;;;4.11;86.61
84122;BME280;74217;51.106;17.084;2024-02-26T07:48:41;99260.09;;;4.29;85.87
84122;BME280;74217;51.106;17.084;2024-02-26T07:51:26;99261.97;;;4.50;85.39
84122;BME280;74217;51.106;17.084;2024-02-26T07:54:10;99262.25;;;4.67;85.99
84122;BME280;74217;51.106;17.084;2024-02-26T07:56:55;99266.94;;;4.81;85.05
84122;BME280;74217;51.106;17.084;2024-02-26T07:59:40;99268.88;;;4.99;83.79
84122;BME280;74217;51.106;17.084;2024-02-26T08:02:25;99267.31;;;5.16;83.88
84122;BME280;74217;51.106;17.084;2024-02-26T08:05:10;99265.72;;;5.35;82.54
84122;BME280;74217;51.106;17.084;2024-02-26T08:07:54;99256.28;;;5.54;81.73
84122;BME280;74217;51.106;17.084;2024-02-26T08:10:39;99259.25;;;5.67;82.53
84122;BME280;74217;51.106;17.084;2024-02-26T08:13:24;99258.63;;;5.82;81.68
84122;BME280;74217;51.106;17.084;2024-02-26T08:16:08;99264.22;;;5.94;81.66
84122;BME280;74217;51.106;17.084;2024-02-26T08:18:53;99256.81;;;6.05;81.77
84122;BME280;74217;51.106;17.084;2024-02-26T08:21:38;99263.84;;;6.23;80.72
84122;BME280;74217;51.106;17.084;2024-02-26T08:24:23;99262.81;;;6.27;79.54
84122;BME280;74217;51.106;17.084;2024-02-26T08:27:07;99256.41;;;6.34;79.56
84122;BME280;74217;51.106;17.084;2024-02-26T08:29:52;99259.91;;;6.53;79.27
84122;BME280;74217;51.106;17.084;2024-02-26T08:32:37;99254.81;;;6.70;78.01
84122;BME280;74217;51.106;17.084;2024-02-26T08:35:21;99261.34;;;6.80;77.25
84122;BME280;74217;51.106;17.084;2024-02-26T08:38:06;99257.53;;;6.87;76.92
84122;BME280;74217;51.106;17.084;2024-02-26T08:40:50;99259.50;;;7.01;76.42
84122;BME280;74217;51.106;17.084;2024-02-26T08:43:35;99249.31;;;7.15;75.31
84122;BME280;74217;51.106;17.084;2024-02-26T08:46:20;99240.97;;;7.25;75.23
84122;BME280;74217;51.106;17.084;2024-02-26T08:49:05;99243.84;;;7.38;75.47
84122;BME280;74217;51.106;17.084;2024-02-26T08:51:49;99242.28;;;7.52;73.02
84122;BME280;74217;51.106;17.084;2024-02-26T08:54:33;99246.00;;;7.65;74.22
84122;BME280;74217;51.106;17.084;2024-02-26T08:57:18;99233.59;;;7.69;75.25
84122;BME280;74217;51.106;17.084;2024-02-26T09:00:03;99252.44;;;7.94;72.61
84122;BME280;74217;51.106;17.084;2024-02-26T09:02:48;99245.75;;;8.05;70.94
84122;BME280;74217;51.106;17.084;2024-02-26T09:05:33;99235.56;;;8.16;71.21
84122;BME280;74217;51.106;17.084;2024-02-26T09:08:18;99240.19;;;8.28;71.12
84122;BME280;74217;51.106;17.084;2024-02-26T09:11:04;99235.56;;;8.33;69.85
84122;BME280;74217;51.106;17.084;2024-02-26T09:13:49;99238.50;;;8.44;69.72
84122;BME280;74217;51.106;17.084;2024-02-26T09:16:34;99228.63;;;8.49;69.09
84122;BME280;74217;51.106;17.084;2024-02-26T09:19:18;99231.53;;;8.60;69.50
84122;BME280;74217;51.106;17.084;2024-02-26T09:22:03;99216.59;;;8.62;69.67
84122;BME280;74217;51.106;17.084;2024-02-26T09:24:48;99224.88;;;8.87;68.68
84122;BME280;74217;51.106;17.084;2024-02-26T09:27:34;99220.22;;;8.92;67.53
84122;BME280;74217;51.106;17.084;2024-02-26T09:30:19;99224.03;;;9.02;66.92
84122;BME280;74217;51.106;17.084;2024-02-26T09:33:04;99233.44;;;9.06;65.81
84122;BME280;74217;51.106;17.084;2024-02-26T09:35:48;99228.47;;;9.17;66.11
84122;BME280;74217;51.106;17.084;2024-02-26T09:38:34;99232.84;;;9.17;66.76
84122;BME280;74217;51.106;17.084;2024-02-26T09:41:21;99236.91;;;9.22;64.92
84122;BME280;74217;51.106;17.084;2024-02-26T09:44:07;99225.00;;;9.32;65.09
84122;BME280;74217;51.106;17.084;2024-02-26T09:46:53;99226.19;;;9.42;66.17
84122;BME280;74217;51.106;17.084;2024-02-26T09:49:38;99224.22;;;9.61;63.85
84122;BME280;74217;51.106;17.084;2024-02-26T09:52:23;99219.78;;;9.77;64.38
84122;BME280;74217;51.106;17.084;2024-02-26T09:55:09;99232.81;;;9.94;63.45
84122;BME280;74217;51.106;17.084;2024-02-26T09:57:57;99224.88;;;9.96;63.98
84122;BME280;74217;51.106;17.084;2024-02-26T10:00:43;99241.38;;;9.82;62.95
84122;BME280;74217;51.106;17.084;2024-02-26T10:03:38;99225.03;;;9.77;62.89
84122;BME280;74217;51.106;17.084;2024-02-26T10:06:26;99230.63;;;9.71;63.48
84122;BME280;74217;51.106;17.084;2024-02-26T10:09:12;99240.75;;;9.93;63.21
84122;BME280;74217;51.106;17.084;2024-02-26T10:11:57;99237.03;;;10.12;62.62
84122;BME280;74217;51.106;17.084;2024-02-26T10:14:42;99242.19;;;10.14;62.42
84122;BME280;74217;51.106;17.084;2024-02-26T10:17:27;99240.25;;;10.17;61.72
84122;BME280;74217;51.106;17.084;2024-02-26T10:20:17;99246.31;;;10.18;61.35
84122;BME280;74217;51.106;17.084;2024-02-26T10:23:03;99243.25;;;10.25;61.75
84122;BME280;74217;51.106;17.084;2024-02-26T10:25:54;99241.69;;;10.37;59.95
84122;BME280;74217;51.106;17.084;2024-02-26T10:28:41;99246.28;;;10.33;59.94
84122;BME280;74217;51.106;17.084;2024-02-26T10:31:26;99245.16;;;10.37;61.24
84122;BME280;74217;51.106;17.084;2024-02-26T10:34:11;99245.16;;;10.37;59.81
84122;BME280;74217;51.106;17.084;2024-02-26T10:36:57;99251.00;;;10.42;61.09
84122;BME280;74217;51.106;17.084;2024-02-26T10:39:46;99244.22;;;10.38;59.80
84122;BME280;74217;51.106;17.084;2024-02-26T10:42:31;99253.34;;;10.47;60.11
84122;BME280;74217;51.106;17.084;2024-02-26T10:45:15;99252.06;;;10.54;60.19
84122;BME280;74217;51.106;17.084;2024-02-26T10:48:00;99250.09;;;10.57;59.80
84122;BME280;74217;51.106;17.084;2024-02-26T10:50:45;99238.69;;;10.57;60.25
84122;BME280;74217;51.106;17.084;2024-02-26T10:53:33;99240.41;;;10.58;59.57
84122;BME280;74217;51.106;17.084;2024-02-26T10:56:18;99237.59;;;10.75;59.11
84122;BME280;74217;51.106;17.084;2024-02-26T10:59:03;99234.50;;;10.68;60.14
84122;BME280;74217;51.106;17.084;2024-02-26T11:01:48;99227.66;;;10.80;59.87
84122;BME280;74217;51.106;17.084;2024-02-26T11:04:34;99223.97;;;10.82;58.85
84122;BME280;74217;51.106;17.084;2024-02-26T11:07:20;99212.97;;;10.76;59.58
84122;BME280;74217;51.106;17.084;2024-02-26T11:10:06;99212.59;;;10.54;58.26
84122;BME280;74217;51.106;17.084;2024-02-26T11:12:52;99214.56;;;10.50;59.55
84122;BME280;74217;51.106;17.084;2024-02-26T11:15:37;99210.34;;;10.62;59.86
84122;BME280;74217;51.106;17.084;2024-02-26T11:18:22;99200.69;;;10.76;58.11
84122;BME280;74217;51.106;17.084;2024-02-26T11:21:08;99203.66;;;10.84;59.71
84122;BME280;74217;51.106;17.084;2024-02-26T11:23:53;99203.88;;;10.95;59.37
84122;BME280;74217;51.106;17.084;2024-02-26T11:26:51;99203.31;;;11.04;58.90
84122;BME280;74217;51.106;17.084;2024-02-26T11:29:52;99197.44;;;11.13;57.88
84122;BME280;74217;51.106;17.084;2024-02-26T11:32:39;99189.34;;;11.16;59.46
84122;BME280;74217;51.106;17.084;2024-02-26T11:35:24;99189.94;;;11.21;59.55
84122;BME280;74217;51.106;17.084;2024-02-26T11:38:17;99185.78;;;11.31;57.83
84122;BME280;74217;51.106;17.084;2024-02-26T11:41:07;99181.41;;;11.44;57.12
84122;BME280;74217;51.106;17.084;2024-02-26T11:43:57;99180.78;;;11.40;55.84
84122;BME280;74217;51.106;17.084;2024-02-26T11:46:43;99184.53;;;11.36;56.34
84122;BME280;74217;51.106;17.084;2024-02-26T11:49:29;99187.09;;;11.38;55.98
84122;BME280;74217;51.106;17.084;2024-02-26T11:52:15;99181.41;;;11.44;56.59
84122;BME280;74217;51.106;17.084;2024-02-26T11:55:00;99177.84;;;11.45;57.12
84122;BME280;74217;51.106;17.084;2024-02-26T11:57:45;99177.84;;;11.45;57.04
84122;BME280;74217;51.106;17.084;2024-02-26T12:00:30;99179.09;;;11.39;57.07
84122;BME280;74217;51.106;17.084;2024-02-26T12:03:16;99182.56;;;11.40;57.11
84122;BME280;74217;51.106;17.084;2024-02-26T12:06:01;99177.84;;;11.45;56.30
84122;BME280;74217;51.106;17.084;2024-02-26T12:08:46;99179.13;;;11.52;56.30
84122;BME280;74217;51.106;17.084;2024-02-26T12:11:31;99171.13;;;11.53;56.49
84122;BME280;74217;51.106;17.084;2024-02-26T12:14:17;99180.47;;;11.45;56.75
84122;BME280;74217;51.106;17.084;2024-02-26T12:17:02;99178.09;;;11.54;56.58
84122;BME280;74217;51.106;17.084;2024-02-26T12:19:50;99176.84;;;11.60;56.24
84122;BME280;74217;51.106;17.084;2024-02-26T12:22:39;99189.66;;;11.52;55.82
84122;BME280;74217;51.106;17.084;2024-02-26T12:25:28;99178.06;;;11.42;55.69
84122;BME280;74217;51.106;17.084;2024-02-26T12:28:14;99183.66;;;11.50;55.72
84122;BME280;74217;51.106;17.084;2024-02-26T12:30:59;99172.88;;;11.67;55.03
84122;BME280;74217;51.106;17.084;2024-02-26T12:33:44;99184.31;;;11.80;53.79
84122;BME280;74217;51.106;17.084;2024-02-26T12:36:29;99175.44;;;11.81;54.62
84122;BME280;74217;51.106;17.084;2024-02-26T12:39:14;99179.66;;;11.83;54.01
84122;BME280;74217;51.106;17.084;2024-02-26T12:41:59;99168.50;;;11.80;54.07
84122;BME280;74217;51.106;17.084;2024-02-26T12:44:47;99172.47;;;11.73;54.15
84122;BME280;74217;51.106;17.084;2024-02-26T12:47:32;99177.53;;;11.76;55.04
84122;BME280;74217;51.106;17.084;2024-02-26T12:50:16;99171.16;;;11.66;55.19
84122;BME280;74217;51.106;17.084;2024-02-26T12:53:01;99184.50;;;11.77;54.71
84122;BME280;74217;51.106;17.084;2024-02-26T12:55:46;99178.56;;;11.73;55.86
84122;BME280;74217;51.106;17.084;2024-02-26T12:58:32;99180.03;;;11.65;54.99
84122;BME280;74217;51.106;17.084;2024-02-26T13:01:18;99174.88;;;11.63;55.69
84122;BME280;74217;51.106;17.084;2024-02-26T13:04:04;99181.13;;;11.75;55.40
84122;BME280;74217;51.106;17.084;2024-02-26T13:06:51;99187.91;;;11.79;54.39
84122;BME280;74217;51.106;17.084;2024-02-26T13:09:36;99184.50;;;11.77;55.08
84122;BME280;74217;51.106;17.084;2024-02-26T13:12:21;99191.84;;;11.72;54.32
84122;BME280;74217;51.106;17.084;2024-02-26T13:15:06;99178.63;;;11.86;54.27
84122;BME280;74217;51.106;17.084;2024-02-26T13:17:51;99186.56;;;11.72;54.30
84122;BME280;74217;51.106;17.084;2024-02-26T13:20:38;99187.22;;;11.75;54.81
84122;BME280;74217;51.106;17.084;2024-02-26T13:23:24;99181.53;;;11.69;55.73
84122;BME280;74217;51.106;17.084;2024-02-26T13:26:12;99181.53;;;11.69;55.33
84122;BME280;74217;51.106;17.084;2024-02-26T13:29:01;99186.38;;;11.75;54.71
84122;BME280;74217;51.106;17.084;2024-02-26T13:31:47;99179.84;;;11.80;54.84
84122;BME280;74217;51.106;17.084;2024-02-26T13:34:32;99192.69;;;11.72;55.64
84122;BME280;74217;51.106;17.084;2024-02-26T13:37:19;99183.19;;;11.70;55.31
84122;BME280;74217;51.106;17.084;2024-02-26T13:40:10;99196.06;;;11.74;56.15
84122;BME280;74217;51.106;17.084;2024-02-26T13:42:55;99193.56;;;11.73;56.25
84122;BME280;74217;51.106;17.084;2024-02-26T13:45:40;99184.50;;;11.77;55.65
84122;BME280;74217;51.106;17.084;2024-02-26T13:48:24;99180.16;;;11.76;55.40
84122;BME280;74217;51.106;17.084;2024-02-26T13:51:10;99186.72;;;11.83;55.60
84122;BME280;74217;51.106;17.084;2024-02-26T13:53:55;99191.50;;;11.90;54.89
84122;BME280;74217;51.106;17.084;2024-02-26T13:56:40;99199.31;;;11.92;55.62
84122;BME280;74217;51.106;17.084;2024-02-26T13:59:25;99189.03;;;11.75;55.74
84122;BME280;74217;51.106;17.084;2024-02-26T14:02:10;99192.31;;;11.78;55.39
84122;BME280;74217;51.106;17.084;2024-02-26T14:04:55;99191.75;;;11.73;56.53
84122;BME280;74217;51.106;17.084;2024-02-26T14:07:39;99191.66;;;11.75;55.95
84122;BME280;74217;51.106;17.084;2024-02-26T14:10:24;99191.84;;;11.72;56.01
84122;BME280;74217;51.106;17.084;2024-02-26T14:13:10;99189.53;;;11.67;56.46
84122;BME280;74217;51.106;17.084;2024-02-26T14:15:55;99190.53;;;11.52;56.24
84122;BME280;74217;51.106;17.084;2024-02-26T14:18:40;99191.56;;;11.50;56.09
84122;BME280;74217;51.106;17.084;2024-02-26T14:21:25;99189.41;;;11.42;56.26
84122;BME280;74217;51.106;17.084;2024-02-26T14:24:11;99183.59;;;11.37;56.76
84122;BME280;74217;51.106;17.084;2024-02-26T14:26:55;99191.06;;;11.31;57.00
84122;BME280;74217;51.106;17.084;2024-02-26T14:29:39;99187.44;;;11.20;58.19
84122;BME280;74217;51.106;17.084;2024-02-26T14:32:26;99181.44;;;11.16;56.94